Time;durP1;ratioP1;P1;durP2;ratioP2;P2;SDS_P1;SDS_P2;PMS_P1;PMS_P2;Temp;Humidity;BMP_temperature;BMP_pressure;BME280_temperature;BME280_humidity;BME280_pressure;Samples;Min_cycle;Max_cycle;Signal;HPM_P1;HPM_P2
2024/03/20 00:01:03;;;;;;;13.03;8.93;;;;;;;5.09;64.30;96546.69;5093049;28;20201;-85
2024/03/20 00:03:44;;;;;;;14.10;9.67;;;;;;;4.97;65.14;96530.25;5092794;28;20196;-84
2024/03/20 00:06:12;;;;;;;11.87;9.20;;;;;;;4.89;65.33;96547.31;5092815;28;20203;-84
2024/03/20 00:08:40;;;;;;;8.53;7.50;;;;;;;4.43;65.42;96495.22;5093117;28;20662;-84
2024/03/20 00:11:08;;;;;;;9.87;7.80;;;;;;;4.74;65.98;96549.03;5093328;28;20223;-85
2024/03/20 00:13:35;;;;;;;15.43;9.40;;;;;;;4.57;65.25;96515.66;5074730;28;20311;-85
2024/03/20 00:16:02;;;;;;;11.37;8.33;;;;;;;4.70;66.00;96547.94;5093563;28;20265;-85
2024/03/20 00:18:30;;;;;;;13.87;8.53;;;;;;;4.80;64.79;96551.47;5092494;28;20237;-85
2024/03/20 00:21:06;;;;;;;11.83;8.13;;;;;;;4.69;65.13;96547.16;5092737;28;20236;-84
2024/03/20 00:23:33;;;;;;;13.17;8.37;;;;;;;4.72;65.21;96551.09;5091926;28;20200;-84
2024/03/20 00:26:01;;;;;;;11.80;8.57;;;;;;;4.55;66.26;96565.19;5092707;28;20208;-84
2024/03/20 00:28:30;;;;;;;12.43;8.50;;;;;;;4.58;66.16;96550.72;5092924;28;20193;-84
2024/03/20 00:31:00;;;;;;;9.73;7.27;;;;;;;4.63;65.68;96553.41;5092715;28;20199;-85
2024/03/20 00:33:35;;;;;;;8.93;6.50;;;;;;;4.46;65.83;96548.22;5092203;28;20748;-84
2024/03/20 00:36:05;;;;;;;11.10;6.47;;;;;;;4.27;66.48;96517.97;5074182;28;20290;-84
2024/03/20 00:38:32;;;;;;;9.13;7.13;;;;;;;4.36;65.15;96529.66;5092470;28;20188;-84
2024/03/20 00:40:59;;;;;;;8.57;6.23;;;;;;;4.49;65.50;96545.09;5092704;28;20195;-85
2024/03/20 00:43:26;;;;;;;8.70;6.37;;;;;;;4.48;65.25;96540.06;5092764;28;20196;-85
2024/03/20 00:45:55;;;;;;;9.07;7.27;;;;;;;4.35;64.53;96510.44;5091985;28;20212;-85
2024/03/20 00:48:22;;;;;;;11.43;8.73;;;;;;;4.39;64.80;96550.25;5092522;28;20200;-86
2024/03/20 00:50:49;;;;;;;9.03;6.67;;;;;;;4.41;63.94;96530.53;5092449;28;20220;-85
2024/03/20 00:53:19;;;;;;;8.63;6.67;;;;;;;4.38;64.48;96532.88;5092548;28;20254;-85
2024/03/20 00:55:46;;;;;;;6.23;5.63;;;;;;;4.14;63.81;96484.91;5074179;28;20245;-85
2024/03/20 00:58:33;;;;;;;6.93;6.23;;;;;;;4.20;63.28;96520.00;5091881;28;20287;-85
2024/03/20 01:01:05;;;;;;;7.60;5.80;;;;;;;4.40;63.66;96544.72;5092379;28;20218;-85
2024/03/20 01:03:36;;;;;;;10.23;6.67;;;;;;;4.40;63.92;96536.81;5092098;28;20537;-85
2024/03/20 01:06:03;;;;;;;6.23;5.37;;;;;;;4.32;62.96;96515.41;5092098;28;20644;-86
2024/03/20 01:08:30;;;;;;;7.60;6.67;;;;;;;4.36;63.22;96519.91;5091999;28;20210;-86
2024/03/20 01:10:57;;;;;;;7.83;5.67;;;;;;;4.45;63.73;96537.91;5092259;28;20203;-86
2024/03/20 01:13:24;;;;;;;7.07;5.83;;;;;;;4.38;62.88;96527.59;5073523;28;20267;-86
2024/03/20 01:15:51;;;;;;;6.80;6.10;;;;;;;4.38;62.72;96519.69;5091874;28;20202;-86
2024/03/20 01:18:20;;;;;;;6.67;5.97;;;;;;;4.36;61.14;96517.28;5092251;28;20674;-88
2024/03/20 01:20:50;;;;;;;5.80;5.10;;;;;;;4.34;60.54;96521.22;5092427;28;20192;-88
2024/03/20 01:23:17;;;;;;;10.70;5.13;;;;;;;4.13;60.70;96499.91;5092039;28;20188;-88
2024/03/20 01:25:44;;;;;;;7.90;6.13;;;;;;;4.16;60.33;96502.06;5092204;28;20593;-88
2024/03/20 01:28:14;;;;;;;5.93;5.23;;;;;;;4.05;59.77;96507.47;5092103;28;20231;-88
2024/03/20 01:30:41;;;;;;;5.43;4.73;;;;;;;3.90;59.82;96487.78;5091502;28;20686;-87
2024/03/20 01:33:11;;;;;;;7.30;5.30;;;;;;;3.99;60.15;96498.72;5092017;28;20744;-88
2024/03/20 01:35:39;;;;;;;7.57;4.90;;;;;;;3.47;58.83;96430.69;5093517;28;20657;-84
2024/03/20 01:38:09;;;;;;;9.60;7.73;;;;;;;3.91;59.40;96499.13;5096173;28;20208;-85
2024/03/20 01:40:40;;;;;;;6.03;5.00;;;;;;;4.10;57.95;96489.06;5092287;28;20208;-85
2024/03/20 01:43:31;;;;;;;4.30;3.90;;;;;;;4.04;57.22;96504.03;5096315;28;20665;-87
2024/03/20 01:46:09;;;;;;;5.43;4.67;;;;;;;3.72;56.96;96459.19;5095780;28;20204;-87
2024/03/20 01:48:40;;;;;;;5.67;4.17;;;;;;;3.82;57.56;96484.81;5095268;28;20215;-87
2024/03/20 01:51:18;;;;;;;4.23;3.83;;;;;;;3.93;56.80;96494.41;5095407;28;20206;-87
2024/03/20 01:54:00;;;;;;;6.53;4.90;;;;;;;3.44;57.51;96458.28;5095622;28;20704;-87
2024/03/20 01:56:35;;;;;;;6.23;5.27;;;;;;;3.83;58.17;96508.28;5077371;28;20207;-87
2024/03/20 01:59:12;;;;;;;5.40;4.50;;;;;;;3.47;60.44;96507.00;5095818;28;20559;-87
2024/03/20 02:01:39;;;;;;;6.43;5.07;;;;;;;3.27;61.09;96483.84;5095622;28;20191;-88
2024/03/20 02:04:21;;;;;;;6.20;4.53;;;;;;;3.48;61.57;96505.94;5094835;28;20680;-88
2024/03/20 02:06:49;;;;;;;5.40;4.70;;;;;;;3.38;59.78;96500.56;5093963;28;20208;-90
2024/03/20 02:09:16;;;;;;;6.47;4.70;;;;;;;3.31;60.40;96479.69;5095489;28;20200;-88
2024/03/20 02:11:43;;;;;;;6.47;4.70;;;;;;;3.34;60.38;96494.19;5095220;28;20281;-89
2024/03/20 02:14:10;;;;;;;4.43;3.93;;;;;;;3.41;61.73;96506.16;5094960;28;20278;-87
2024/03/20 02:19:22;;;;;;;4.87;3.83;;;;;;;3.32;60.31;96491.00;5093524;28;20196;-87
2024/03/20 02:21:51;;;;;;;4.07;3.77;;;;;;;3.34;60.56;96492.34;5092626;28;20209;-87
2024/03/20 02:24:19;;;;;;;7.30;4.40;;;;;;;3.39;60.96;96508.19;5094758;28;20196;-88
2024/03/20 02:26:46;;;;;;;4.23;3.50;;;;;;;3.27;61.18;96486.47;5095055;28;20204;-86
2024/03/20 02:29:13;;;;;;;4.23;3.73;;;;;;;3.38;60.59;96505.81;5076626;28;20731;-86
2024/03/20 02:31:40;;;;;;;5.03;4.20;;;;;;;2.76;60.61;96427.88;5094239;28;20207;-86
2024/03/20 02:36:57;;;;;;;3.93;3.40;;;;;;;3.26;60.46;96508.56;5091913;28;20729;-85
2024/03/20 02:39:42;;;;;;;4.87;3.77;;;;;;;3.34;60.38;96529.19;5095325;28;20207;-86
2024/03/20 02:42:09;;;;;;;4.30;3.77;;;;;;;3.21;59.58;96489.25;5093531;28;20204;-85
2024/03/20 02:47:27;;;;;;;5.00;4.00;;;;;;;3.04;58.68;96487.44;5089808;28;20658;-84
2024/03/20 02:53:24;;;;;;;3.40;3.10;;;;;;;3.37;60.48;96520.81;5094594;28;20188;-86
2024/03/20 03:11:22;;;;;;;4.47;3.73;;;;;;;3.27;57.83;96540.91;5011415;28;20254;-85
2024/03/20 03:13:50;;;;;;;4.03;3.63;;;;;;;3.40;58.36;96549.25;5011628;28;20242;-85
2024/03/20 03:16:29;;;;;;;5.07;3.83;;;;;;;3.34;57.64;96542.34;5074771;28;20211;-85
2024/03/20 03:19:06;;;;;;;4.73;3.60;;;;;;;3.40;57.85;96543.19;5093883;28;20669;-86
2024/03/20 03:21:33;;;;;;;4.77;4.27;;;;;;;3.42;56.97;96512.19;5093588;28;20277;-85
2024/03/20 03:24:10;;;;;;;5.00;3.77;;;;;;;3.37;58.48;96556.84;5094029;28;20604;-86
2024/03/20 03:26:49;;;;;;;8.07;4.83;;;;;;;3.00;60.07;96544.19;5093527;28;20242;-87
2024/03/20 03:29:22;;;;;;;5.97;3.93;;;;;;;3.09;60.83;96560.34;5094105;28;20224;-87
2024/03/20 03:31:49;;;;;;;5.13;4.60;;;;;;;2.84;61.70;96563.38;5094072;28;20558;-87
2024/03/20 03:34:17;;;;;;;6.00;4.27;;;;;;;2.29;61.79;96527.19;5093840;28;20249;-85
2024/03/20 03:36:45;;;;;;;7.10;4.13;;;;;;;2.46;61.03;96570.03;5093699;28;20740;-85
2024/03/20 03:39:14;;;;;;;7.00;4.40;;;;;;;2.23;62.31;96541.25;5093457;28;20197;-86
2024/03/20 03:41:43;;;;;;;5.03;4.50;;;;;;;2.26;62.37;96541.56;5093379;28;20694;-85
2024/03/20 03:44:10;;;;;;;5.13;3.90;;;;;;;2.48;62.40;96578.50;5094212;28;20283;-86
2024/03/20 03:46:40;;;;;;;4.37;3.90;;;;;;;2.59;60.69;96579.47;5079077;28;20201;-87
2024/03/20 03:49:07;;;;;;;4.10;3.30;;;;;;;2.50;60.30;96573.00;5072933;28;20204;-85
2024/03/20 03:51:34;;;;;;;4.13;3.47;;;;;;;2.35;61.84;96571.69;5072804;28;20204;-85
2024/03/20 03:54:01;;;;;;;4.33;3.30;;;;;;;1.86;60.83;96536.31;5072938;28;20262;-87
2024/03/20 03:56:29;;;;;;;4.63;3.10;;;;;;;2.01;62.66;96599.63;5073838;28;20197;-86
2024/03/20 03:58:58;;;;;;;4.63;4.07;;;;;;;2.18;62.36;96597.09;5073145;28;20205;-85
2024/03/20 04:01:25;;;;;;;5.47;3.80;;;;;;;2.12;63.56;96580.41;5073168;28;20205;-85
2024/03/20 04:03:52;;;;;;;6.03;4.43;;;;;;;2.32;63.01;96616.78;5072572;28;20207;-85
2024/03/20 04:06:19;;;;;;;3.97;3.67;;;;;;;2.17;63.86;96570.03;5073086;28;20197;-84
2024/03/20 04:08:46;;;;;;;4.03;3.40;;;;;;;2.08;63.95;96583.75;5072534;28;20205;-84
2024/03/20 04:11:31;;;;;;;3.70;3.37;;;;;;;2.38;63.88;96607.19;5073708;28;20212;-84
2024/03/20 04:14:00;;;;;;;10.73;3.50;;;;;;;2.36;63.71;96588.22;5092807;28;20216;-84
2024/03/20 04:16:26;;;;;;;3.33;2.93;;;;;;;2.01;61.38;96573.38;5092746;28;20688;-85
2024/03/20 04:18:54;;;;;;;4.00;3.60;;;;;;;2.04;63.34;96617.53;5092660;28;20658;-88
2024/03/20 04:21:24;;;;;;;3.93;3.33;;;;;;;2.06;62.90;96612.06;5092852;28;20272;-86
2024/03/20 04:23:51;;;;;;;5.00;3.60;;;;;;;1.98;61.45;96576.47;5092822;28;20275;-85
2024/03/20 04:26:34;;;;;;;3.33;3.03;;;;;;;2.38;61.40;96615.06;5093770;28;20200;-87
2024/03/20 04:29:03;;;;;;;5.13;3.77;;;;;;;2.32;62.33;96602.84;5092114;28;20206;-87
2024/03/20 04:31:30;;;;;;;4.60;4.03;;;;;;;2.10;62.18;96584.31;5092477;28;20223;-86
2024/03/20 04:33:58;;;;;;;4.73;4.20;;;;;;;1.77;61.95;96543.75;5092959;28;20220;-87
2024/03/20 04:36:40;;;;;;;4.00;3.43;;;;;;;2.25;62.43;96633.72;5092251;28;20279;-87
2024/03/20 04:39:07;;;;;;;4.53;3.60;;;;;;;1.89;62.68;96602.25;5092195;28;20673;-87
2024/03/20 04:41:34;;;;;;;4.30;3.37;;;;;;;2.06;63.35;96633.06;5092556;28;20250;-88
2024/03/20 04:44:01;;;;;;;4.17;3.33;;;;;;;1.83;63.57;96616.31;5092896;28;20303;-87
2024/03/20 04:46:30;;;;;;;3.10;2.80;;;;;;;1.90;63.15;96601.25;5092703;28;20231;-87
2024/03/20 04:48:59;;;;;;;4.47;3.93;;;;;;;1.75;63.26;96568.63;5094864;28;20203;-87
2024/03/20 04:51:43;;;;;;;6.00;5.20;;;;;;;2.11;63.37;96643.66;5092373;28;20721;-87
2024/03/20 04:54:23;;;;;;;7.10;5.50;;;;;;;1.99;62.29;96627.94;5089192;28;20603;-88
2024/03/20 04:57:58;;;;;;;8.90;6.87;;;;;;;2.16;62.90;96644.56;5092096;28;20188;-88
2024/03/20 05:00:41;;;;;;;15.67;10.30;;;;;;;2.10;64.66;96634.19;5092004;28;20195;-90
2024/03/20 05:07:00;;;;;;;12.37;8.90;;;;;;;2.15;64.37;96645.59;5092245;28;20207;-87
2024/03/20 05:09:31;;;;;;;7.20;5.77;;;;;;;1.74;62.54;96609.00;5088144;28;20207;-90
2024/03/20 05:11:58;;;;;;;6.17;5.17;;;;;;;2.13;62.01;96638.97;5093328;28;20220;-91
2024/03/20 05:14:25;;;;;;;6.37;5.33;;;;;;;2.07;61.91;96668.78;5092028;28;20647;-91
2024/03/20 05:16:53;;;;;;;5.50;5.00;;;;;;;2.21;62.36;96649.16;5091938;28;20682;-92
2024/03/20 05:19:21;;;;;;;6.27;5.30;;;;;;;1.58;62.35;96569.31;5092290;28;20227;-91
2024/03/20 05:21:50;;;;;;;6.37;4.77;;;;;;;2.20;61.76;96650.16;5092125;28;20569;-91
2024/03/20 05:24:18;;;;;;;8.10;4.57;;;;;;;2.05;62.03;96634.88;5073858;28;20646;-92
2024/03/20 05:26:47;;;;;;;5.87;4.83;;;;;;;2.11;62.29;96681.22;5092530;28;20200;-91
2024/03/20 05:29:17;;;;;;;9.07;6.37;;;;;;;2.06;62.83;96646.19;5090756;28;20197;-93
2024/03/20 05:31:55;;;;;;;9.47;5.47;;;;;;;2.06;61.85;96644.38;5071421;28;20265;-93
2024/03/20 05:34:24;;;;;;;6.70;4.57;;;;;;;2.17;59.54;96646.19;5090821;28;20230;-93
2024/03/20 05:37:13;;;;;;;4.73;3.97;;;;;;;2.25;59.35;96639.78;5099639;28;20228;-93
2024/03/20 05:39:48;;;;;;;4.50;3.30;;;;;;;2.70;57.55;96684.53;5094185;28;20196;-93
2024/03/20 05:42:17;;;;;;;3.87;3.47;;;;;;;2.86;56.82;96676.94;5092458;28;20196;-91
2024/03/20 05:44:46;;;;;;;3.83;3.13;;;;;;;3.00;55.93;96675.63;5092214;28;20204;-89
2024/03/20 05:47:43;;;;;;;3.67;3.00;;;;;;;2.77;55.38;96660.75;5091175;28;20235;-87
2024/03/20 05:50:12;;;;;;;8.40;3.40;;;;;;;3.05;55.48;96672.28;5089165;28;20200;-88
2024/03/20 05:53:02;;;;;;;5.70;3.33;;;;;;;3.24;54.50;96681.56;5091285;28;20211;-89
2024/03/20 05:55:31;;;;;;;4.80;3.57;;;;;;;3.25;54.73;96670.00;5092875;28;20200;-87
2024/03/20 05:57:59;;;;;;;4.83;3.43;;;;;;;3.09;53.99;96633.97;5092433;28;20569;-89
2024/03/20 06:00:33;;;;;;;3.63;3.33;;;;;;;3.33;54.31;96655.66;5086824;28;20198;-89
2024/03/20 06:03:19;;;;;;;5.53;3.57;;;;;;;3.54;53.53;96686.56;5066905;28;20208;-89
2024/03/20 06:05:57;;;;;;;4.17;3.67;;;;;;;3.67;53.48;96677.53;5053302;28;20204;-88
2024/03/20 06:15:35;;;;;;;4.00;3.63;;;;;;;4.01;52.31;96715.19;5028165;28;20265;-92
2024/03/20 06:19:07;;;;;;;4.70;4.00;;;;;;;4.29;53.46;96700.31;5020546;28;20742;-93
2024/03/20 06:21:41;;;;;;;6.37;4.40;;;;;;;4.16;52.74;96662.75;5014088;28;20202;-90
2024/03/20 06:24:24;;;;;;;4.47;3.87;;;;;;;4.51;52.15;96716.94;5033696;28;20207;-90
2024/03/20 06:33:14;;;;;;;6.20;4.90;;;;;;;4.41;52.73;96696.53;5036744;28;20255;-90
2024/03/20 06:35:43;;;;;;;5.50;4.63;;;;;;;4.52;53.17;96676.38;5055294;28;20292;-93
2024/03/20 06:44:44;;;;;;;5.17;3.90;;;;;;;5.15;52.81;96719.03;5055684;28;20208;-90
2024/03/20 06:47:23;;;;;;;5.83;4.23;;;;;;;5.07;51.36;96683.34;5054419;28;20664;-89
2024/03/20 06:50:27;;;;;;;4.67;3.83;;;;;;;5.13;50.63;96681.53;5054845;28;20205;-91
2024/03/20 06:52:57;;;;;;;5.10;4.07;;;;;;;5.73;50.85;96740.44;5061721;28;20282;-90
2024/03/20 06:55:34;;;;;;;5.97;4.00;;;;;;;5.35;49.58;96671.72;5075301;28;20251;-89
2024/03/20 07:01:07;;;;;;;4.40;4.00;;;;;;;5.69;49.32;96712.94;5064774;28;20202;-90
2024/03/20 07:03:37;;;;;;;5.93;4.30;;;;;;;6.10;48.52;96766.94;5073967;28;20254;-92
2024/03/20 07:06:15;;;;;;;4.87;3.83;;;;;;;6.28;49.01;96750.69;5074730;28;20205;-90
2024/03/20 07:08:44;;;;;;;4.43;3.93;;;;;;;6.53;48.41;96754.53;5075314;28;20674;-93
2024/03/20 07:11:16;;;;;;;7.13;4.40;;;;;;;5.96;47.43;96692.56;5075617;28;20208;-91
2024/03/20 07:13:42;;;;;;;6.00;4.37;;;;;;;6.22;46.95;96721.81;5078090;28;20682;-93
2024/03/20 07:16:14;;;;;;;4.10;3.70;;;;;;;6.76;46.32;96764.72;5094599;28;20231;-91
2024/03/20 07:18:45;;;;;;;4.23;3.53;;;;;;;7.02;46.53;96765.63;5095242;28;20200;-91
2024/03/20 07:21:17;;;;;;;7.00;6.30;;;;;;;6.93;46.60;96761.91;5092680;28;20321;-93
2024/03/20 07:23:42;;;;;;;5.47;4.97;;;;;;;7.08;45.57;96740.75;5095082;28;20204;-89
2024/03/20 07:26:09;;;;;;;7.07;4.53;;;;;;;7.18;44.56;96729.44;5094454;28;20207;-89
2024/03/20 07:28:43;;;;;;;6.13;4.73;;;;;;;7.35;44.68;96755.66;5076737;28;20223;-90
2024/03/20 07:31:11;;;;;;;8.63;5.43;;;;;;;7.35;45.19;96735.28;5076959;28;20208;-91
2024/03/20 07:33:40;;;;;;;44.83;24.70;;;;;;;7.94;44.23;96757.91;5093869;28;20224;-89
2024/03/20 07:36:06;;;;;;;36.13;21.73;;;;;;;8.05;43.34;96743.59;5094312;28;20200;-91
2024/03/20 07:38:33;;;;;;;23.00;15.83;;;;;;;8.14;42.41;96716.56;5094216;28;20287;-90
2024/03/20 07:40:59;;;;;;;19.60;13.00;;;;;;;8.40;43.69;96781.78;5077200;28;20200;-89
2024/03/20 07:43:26;;;;;;;7.60;6.80;;;;;;;8.05;43.83;96756.03;5060602;28;20238;-88
2024/03/20 07:45:52;;;;;;;6.03;4.27;;;;;;;7.88;43.24;96769.56;5076407;28;20270;-89
2024/03/20 07:48:19;;;;;;;5.57;4.10;;;;;;;7.35;43.80;96735.28;5076845;28;20239;-91
2024/03/20 07:50:53;;;;;;;4.13;3.63;;;;;;;7.39;44.28;96738.19;5094893;28;20214;-91
2024/03/20 07:53:23;;;;;;;5.20;4.20;;;;;;;7.75;43.28;96775.38;5094535;28;20773;-88
2024/03/20 07:55:50;;;;;;;5.03;4.00;;;;;;;8.44;42.50;96766.94;5094024;28;20287;-91
2024/03/20 07:58:17;;;;;;;3.97;3.37;;;;;;;8.15;41.86;96793.16;5094292;28;20192;-91
2024/03/20 08:00:43;;;;;;;4.70;4.17;;;;;;;8.22;43.13;96775.13;5093819;28;20283;-87
2024/03/20 08:03:10;;;;;;;4.30;3.90;;;;;;;7.37;43.44;96785.34;5093331;28;20228;-88
2024/03/20 08:05:36;;;;;;;5.90;3.73;;;;;;;7.38;46.10;96789.56;5094079;28;20666;-90
2024/03/20 08:08:05;;;;;;;4.77;4.37;;;;;;;7.39;46.73;96780.56;5093165;28;20207;-91
2024/03/20 08:10:44;;;;;;;5.97;4.57;;;;;;;7.51;43.71;96736.13;5094272;28;20204;-93
2024/03/20 08:16:45;;;;;;;5.13;4.63;;;;;;;6.39;46.93;96754.19;5030493;28;20311;-92
2024/03/20 08:19:19;;;;;;;5.63;5.00;;;;;;;6.41;46.85;96765.28;5030493;28;20688;-91
2024/03/20 08:21:54;;;;;;;4.37;3.17;;;;;;;6.27;46.09;96777.34;5036762;28;21682;-92
2024/03/20 08:24:22;;;;;;;4.67;4.13;;;;;;;6.58;46.54;96773.88;5048796;28;20209;-91
2024/03/20 08:26:58;;;;;;;4.97;4.00;;;;;;;7.80;44.51;96767.44;5050178;28;20351;-91
2024/03/20 08:29:33;;;;;;;3.63;3.10;;;;;;;7.85;42.01;96687.91;5047955;28;20208;-90
2024/03/20 08:34:53;;;;;;;3.97;3.27;;;;;;;9.40;40.42;96769.53;5033026;28;20243;-90
2024/03/20 08:37:19;;;;;;;5.63;3.70;;;;;;;8.38;41.09;96761.88;5043956;28;20206;-91
2024/03/20 08:39:47;;;;;;;4.43;3.83;;;;;;;8.41;41.10;96766.66;5032800;28;20213;-87
2024/03/20 08:42:13;;;;;;;4.73;3.43;;;;;;;8.30;42.54;96718.91;5033202;28;20236;-90
2024/03/20 08:44:40;;;;;;;4.80;3.30;;;;;;;8.60;41.79;96758.94;5033003;28;20202;-88
2024/03/20 08:47:07;;;;;;;4.77;3.17;;;;;;;9.65;40.55;96756.13;5032314;28;20210;-87
2024/03/20 08:49:37;;;;;;;4.03;3.60;;;;;;;8.48;40.34;96756.56;5045458;28;20664;-88
2024/03/20 08:52:03;;;;;;;3.47;3.17;;;;;;;8.70;39.86;96769.53;5052521;28;20197;-87
2024/03/20 08:54:30;;;;;;;7.17;3.57;;;;;;;8.81;39.37;96768.44;5052779;28;20260;-88
2024/03/20 08:56:58;;;;;;;5.33;3.90;;;;;;;8.88;41.52;96768.94;5052559;28;20216;-91
2024/03/20 08:59:24;;;;;;;3.97;3.50;;;;;;;7.99;41.53;96709.41;5053127;28;20563;-89
2024/03/20 09:01:50;;;;;;;4.37;3.63;;;;;;;8.51;40.87;96727.63;5052853;28;20194;-89
2024/03/20 09:04:17;;;;;;;4.80;4.00;;;;;;;8.14;41.63;96725.28;5052778;28;20201;-89
2024/03/20 09:06:43;;;;;;;5.13;3.70;;;;;;;7.68;42.27;96713.91;5053380;28;20205;-87
2024/03/20 09:09:10;;;;;;;3.40;3.10;;;;;;;8.73;40.73;96758.38;5052348;28;20216;-90
2024/03/20 09:11:36;;;;;;;3.73;3.37;;;;;;;10.03;38.31;96757.19;5053553;28;20575;-91
2024/03/20 09:14:04;;;;;;;4.27;3.87;;;;;;;10.70;36.65;96752.06;5052421;28;20229;-89
2024/03/20 09:16:30;;;;;;;4.07;3.17;;;;;;;10.31;36.26;96738.09;5075457;28;20227;-88
2024/03/20 09:18:57;;;;;;;3.43;3.03;;;;;;;10.03;35.43;96745.75;5075204;28;20200;-89
2024/03/20 09:21:23;;;;;;;5.10;3.23;;;;;;;8.77;39.79;96760.22;5091976;28;20247;-86
2024/03/20 09:23:50;;;;;;;3.30;3.00;;;;;;;8.75;40.43;96764.19;5091496;28;20208;-85
2024/03/20 09:26:16;;;;;;;5.40;3.63;;;;;;;9.64;38.64;96767.00;5092668;28;20207;-85
2024/03/20 09:28:43;;;;;;;5.07;3.27;;;;;;;8.76;39.83;96752.53;5092169;28;20622;-86
2024/03/20 09:31:10;;;;;;;3.97;3.57;;;;;;;8.64;40.70;96746.72;5092448;28;20261;-88
2024/03/20 09:33:37;;;;;;;4.67;3.37;;;;;;;9.74;39.96;96769.59;5091092;28;20218;-85
2024/03/20 09:36:04;;;;;;;4.00;3.60;;;;;;;10.52;36.75;96734.16;5092294;28;20199;-89
2024/03/20 09:38:31;;;;;;;3.23;2.93;;;;;;;12.15;33.46;96742.69;5074461;28;20300;-91
2024/03/20 09:40:57;;;;;;;3.37;2.87;;;;;;;12.62;32.38;96740.03;5053992;28;20219;-87
2024/03/20 09:43:24;;;;;;;3.27;2.97;;;;;;;12.27;33.25;96763.59;5071513;28;20204;-86
2024/03/20 09:45:51;;;;;;;3.70;3.00;;;;;;;10.98;32.46;96760.28;5071627;28;20266;-89
2024/03/20 09:48:20;;;;;;;3.63;2.93;;;;;;;10.10;35.23;96722.28;5073068;28;20266;-90
2024/03/20 09:50:46;;;;;;;4.20;2.80;;;;;;;10.18;34.12;96739.50;5072653;28;20204;-88
2024/03/20 09:53:13;;;;;;;6.40;3.90;;;;;;;9.80;35.81;96774.63;5072003;28;20209;-91
2024/03/20 09:55:42;;;;;;;3.87;2.70;;;;;;;10.31;35.61;96770.81;5055086;28;20221;-86
2024/03/20 09:58:14;;;;;;;4.43;3.50;;;;;;;10.67;35.43;96757.16;5058652;28;20548;-88
2024/03/20 10:00:40;;;;;;;3.57;3.20;;;;;;;10.19;33.81;96735.78;5075966;28;20197;-87
2024/03/20 10:03:08;;;;;;;5.27;3.53;;;;;;;9.96;36.16;96762.00;5075012;28;20709;-85
2024/03/20 10:05:40;;;;;;;3.93;3.30;;;;;;;10.21;36.81;96762.88;5075233;28;20258;-88
2024/03/20 10:08:12;;;;;;;3.57;3.27;;;;;;;9.48;36.10;96758.31;5075878;28;20193;-85
2024/03/20 10:10:42;;;;;;;3.13;2.90;;;;;;;9.60;37.15;96763.31;5075833;28;20287;-87
2024/03/20 10:13:13;;;;;;;4.30;3.13;;;;;;;9.61;36.32;96727.72;5075353;28;20241;-88
2024/03/20 10:15:39;;;;;;;3.93;3.63;;;;;;;10.92;34.28;96753.44;5075032;28;20241;-87
2024/03/20 10:18:06;;;;;;;5.07;3.67;;;;;;;11.93;32.38;96764.66;5075185;28;20718;-85
2024/03/20 10:20:33;;;;;;;3.67;2.90;;;;;;;12.59;30.71;96762.78;5073527;28;20559;-85
2024/03/20 10:23:01;;;;;;;4.70;2.87;;;;;;;12.47;30.24;96770.50;5075558;28;20288;-90
2024/03/20 10:25:28;;;;;;;3.37;2.90;;;;;;;11.40;32.02;96732.06;5075562;28;20212;-86
2024/03/20 10:27:55;;;;;;;4.83;3.73;;;;;;;11.30;32.87;96716.22;5075419;28;20224;-88
2024/03/20 10:30:22;;;;;;;4.40;3.43;;;;;;;10.69;33.33;96678.63;5075134;28;20201;-87
2024/03/20 10:32:51;;;;;;;3.93;3.47;;;;;;;10.58;34.81;96750.88;5057804;28;20568;-87
2024/03/20 10:35:18;;;;;;;3.20;2.90;;;;;;;9.67;35.51;96753.97;5057363;28;20220;-88
2024/03/20 10:37:47;;;;;;;3.23;2.87;;;;;;;9.19;36.75;96715.72;5075247;28;20288;-89
2024/03/20 10:40:16;;;;;;;2.93;2.73;;;;;;;9.87;35.25;96757.56;5075556;28;20639;-88
2024/03/20 10:42:45;;;;;;;4.40;3.40;;;;;;;11.64;34.24;96748.00;5074528;28;20675;-85
2024/03/20 10:45:12;;;;;;;4.67;3.30;;;;;;;10.41;32.67;96730.78;5074212;28;20198;-87
2024/03/20 10:47:40;;;;;;;5.77;4.33;;;;;;;10.44;36.04;96742.75;5075010;28;20232;-89
2024/03/20 10:50:14;;;;;;;6.57;3.97;;;;;;;10.13;35.83;96742.19;5074891;28;20246;-91
2024/03/20 10:52:42;;;;;;;4.07;3.67;;;;;;;11.97;35.46;96738.22;5070522;28;20200;-85
2024/03/20 10:55:10;;;;;;;4.40;3.87;;;;;;;12.49;30.77;96747.72;5074612;28;20648;-85
2024/03/20 10:57:38;;;;;;;3.07;2.77;;;;;;;11.90;31.17;96725.22;5074045;28;20200;-84
2024/03/20 11:00:09;;;;;;;3.40;2.90;;;;;;;11.24;33.15;96742.13;5074066;28;20245;-87
2024/03/20 11:02:36;;;;;;;3.43;3.00;;;;;;;10.71;32.21;96719.03;5075186;28;20205;-88
2024/03/20 11:05:03;;;;;;;3.40;3.10;;;;;;;11.88;32.33;96719.38;5074240;28;20205;-87
2024/03/20 11:07:36;;;;;;;3.73;3.43;;;;;;;12.03;31.98;96718.34;5055854;28;20268;-86
2024/03/20 11:10:17;;;;;;;4.07;3.03;;;;;;;12.59;30.40;96722.75;5074381;28;20207;-86
2024/03/20 11:12:45;;;;;;;4.17;3.83;;;;;;;13.45;30.28;96714.88;5092619;28;20207;-86
2024/03/20 11:15:15;;;;;;;5.17;3.03;;;;;;;13.66;29.09;96717.88;5094947;28;20228;-89
2024/03/20 11:17:43;;;;;;;4.10;3.63;;;;;;;13.10;29.21;96684.34;5055282;28;20288;-87
2024/03/20 11:20:42;;;;;;;4.07;2.93;;;;;;;13.45;29.94;96714.09;5076755;28;20199;-88
2024/03/20 11:23:21;;;;;;;2.77;2.50;;;;;;;12.94;29.75;96713.25;5093648;28;20196;-87
2024/03/20 11:25:47;;;;;;;3.37;3.07;;;;;;;13.08;30.63;96702.53;5093644;28;20200;-85
2024/03/20 11:28:16;;;;;;;5.90;3.13;;;;;;;12.87;29.45;96710.19;5094320;28;20196;-85
2024/03/20 11:30:42;;;;;;;4.17;3.10;;;;;;;12.83;29.92;96701.19;5094135;28;20235;-90
2024/03/20 11:33:10;;;;;;;3.13;2.77;;;;;;;12.18;31.36;96693.31;5075405;28;20617;-84
2024/03/20 11:35:37;;;;;;;3.10;2.80;;;;;;;11.72;31.51;96710.00;5093925;28;20281;-86
2024/03/20 11:38:05;;;;;;;3.97;2.70;;;;;;;12.28;30.70;96703.03;5093868;28;20235;-87
2024/03/20 11:40:33;;;;;;;5.30;3.40;;;;;;;12.76;29.11;96708.78;5093883;28;20211;-85
2024/03/20 11:43:00;;;;;;;4.43;3.33;;;;;;;13.45;30.04;96709.53;5093516;28;20208;-84
2024/03/20 11:45:34;;;;;;;4.80;3.70;;;;;;;13.56;29.34;96691.41;5093915;28;20583;-87
2024/03/20 11:48:01;;;;;;;3.50;3.03;;;;;;;13.59;29.00;96696.16;5092270;28;20258;-82
2024/03/20 11:50:27;;;;;;;3.20;2.90;;;;;;;12.85;28.92;96708.88;5093643;28;20268;-84
2024/03/20 11:52:54;;;;;;;4.50;3.57;;;;;;;12.43;30.50;96702.75;5093724;28;20196;-84
2024/03/20 11:55:22;;;;;;;3.90;3.13;;;;;;;12.67;30.22;96708.69;5093997;28;20230;-82
2024/03/20 11:57:52;;;;;;;4.40;2.30;;;;;;;13.28;29.65;96698.69;5093013;28;20266;-83
2024/03/20 12:00:19;;;;;;;7.93;3.30;;;;;;;13.74;28.89;96694.19;5093472;28;20200;-83
2024/03/20 12:03:25;;;;;;;3.17;2.97;;;;;;;13.78;28.15;96695.16;5093085;28;20283;-80
2024/03/20 12:06:09;;;;;;;6.33;4.23;;;;;;;13.84;27.28;96696.63;5073052;28;20208;-89
2024/03/20 12:08:36;;;;;;;3.13;2.77;;;;;;;13.79;28.10;96697.56;5080543;28;20219;-83
2024/03/20 12:11:18;;;;;;;7.40;6.43;;;;;;;13.83;29.25;96698.53;5092832;28;20199;-84
2024/03/20 12:13:45;;;;;;;5.20;4.13;;;;;;;13.78;28.26;96682.56;5093498;28;20231;-83
2024/03/20 12:16:11;;;;;;;5.30;4.70;;;;;;;13.51;28.92;96659.41;5093054;28;20300;-83
2024/03/20 12:18:40;;;;;;;16.47;9.97;;;;;;;13.06;29.13;96695.94;5074311;28;20239;-84
2024/03/20 12:21:12;;;;;;;11.20;7.70;;;;;;;12.33;29.85;96690.38;5092340;28;20196;-84
2024/03/20 12:23:39;;;;;;;16.17;9.07;;;;;;;11.82;30.85;96685.06;5092350;28;20196;-84
2024/03/20 12:26:05;;;;;;;13.77;9.13;;;;;;;11.57;30.95;96663.03;5093063;28;20203;-85
2024/03/20 12:28:32;;;;;;;20.47;11.63;;;;;;;12.28;31.14;96687.00;5092694;28;20200;-84
2024/03/20 12:30:58;;;;;;;5.70;4.67;;;;;;;13.00;30.35;96686.41;5092348;28;20196;-84
2024/03/20 12:33:25;;;;;;;3.87;3.47;;;;;;;13.35;28.45;96677.66;5092826;28;20196;-84
2024/03/20 12:35:53;;;;;;;3.60;3.30;;;;;;;13.35;27.89;96685.69;5092080;28;20216;-84
2024/03/20 12:38:20;;;;;;;4.83;2.87;;;;;;;13.44;28.08;96680.44;5092596;28;20649;-84
2024/03/20 12:40:46;;;;;;;2.70;2.40;;;;;;;13.58;27.26;96664.34;5091288;28;20559;-83
2024/03/20 12:43:14;;;;;;;4.50;2.90;;;;;;;14.03;27.37;96659.00;5092796;28;20218;-83
2024/03/20 12:45:40;;;;;;;4.00;3.10;;;;;;;13.95;28.06;96690.75;5092295;28;20204;-83
2024/03/20 12:48:12;;;;;;;2.77;2.57;;;;;;;13.86;28.56;96678.38;5090614;28;20196;-84
2024/03/20 12:50:39;;;;;;;3.27;2.97;;;;;;;13.72;27.87;96662.41;5092104;28;20204;-85
2024/03/20 12:53:15;;;;;;;4.23;3.20;;;;;;;13.77;28.11;96672.19;5092597;28;20195;-84
2024/03/20 12:55:42;;;;;;;3.27;2.97;;;;;;;13.51;27.59;96691.50;5092379;28;20583;-88